Time;durP1;ratioP1;P1;durP2;ratioP2;P2;SDS_P1;SDS_P2;PMS_P1;PMS_P2;Temp;Humidity;BMP_temperature;BMP_pressure;BME280_temperature;BME280_humidity;BME280_pressure;Samples;Min_cycle;Max_cycle;Signal;HPM_P1;HPM_P2
2022/10/08 00:00:51;;;;;;;16.60;15.30;;;13.20;99.90;;;;;;4905972;29;20195;-79
2022/10/08 00:03:19;;;;;;;18.47;16.83;;;13.20;99.90;;;;;;4901444;29;20680;-79
2022/10/08 00:05:55;;;;;;;16.17;14.67;;;13.30;99.90;;;;;;4921016;29;20227;-79
2022/10/08 00:08:23;;;;;;;11.53;10.37;;;13.30;99.90;;;;;;4923983;29;20210;-80
2022/10/08 00:10:54;;;;;;;14.20;12.67;;;13.30;99.90;;;;;;4925037;29;20203;-79
2022/10/08 00:13:21;;;;;;;12.57;11.37;;;13.30;99.90;;;;;;4905182;29;20200;-79
2022/10/08 00:15:48;;;;;;;14.53;12.70;;;13.30;99.90;;;;;;4919221;29;20255;-79
2022/10/08 00:18:15;;;;;;;15.97;12.50;;;13.20;99.90;;;;;;4925295;29;20582;-79
2022/10/08 00:20:43;;;;;;;21.43;19.57;;;13.20;99.90;;;;;;4919467;29;20296;-79
2022/10/08 00:23:10;;;;;;;19.73;18.03;;;13.20;99.90;;;;;;4906063;29;20215;-80
2022/10/08 00:25:41;;;;;;;14.80;13.33;;;13.20;99.90;;;;;;4919608;29;20219;-79
2022/10/08 00:28:10;;;;;;;14.03;12.63;;;13.20;99.90;;;;;;4923528;29;20480;-80
2022/10/08 00:30:38;;;;;;;13.30;11.87;;;13.20;99.90;;;;;;4921031;29;20227;-79
2022/10/08 00:33:06;;;;;;;11.87;10.60;;;13.20;99.90;;;;;;4901707;29;20260;-79
2022/10/08 00:35:37;;;;;;;22.10;20.17;;;13.30;99.90;;;;;;4920859;29;20213;-79
2022/10/08 00:38:04;;;;;;;22.17;20.17;;;13.30;99.90;;;;;;4918244;29;20201;-79
2022/10/08 00:40:32;;;;;;;18.90;17.27;;;13.30;99.90;;;;;;4920421;29;20201;-79
2022/10/08 00:43:00;;;;;;;20.97;19.00;;;13.40;99.90;;;;;;4922025;29;20207;-79
2022/10/08 00:45:28;;;;;;;18.00;16.50;;;13.30;99.90;;;;;;4923932;29;20704;-79
2022/10/08 00:47:56;;;;;;;15.33;14.03;;;13.40;99.90;;;;;;4900669;29;20203;-79
2022/10/08 00:50:31;;;;;;;17.27;15.67;;;13.40;99.90;;;;;;4904230;29;20224;-79
2022/10/08 00:53:01;;;;;;;14.07;12.20;;;13.40;99.90;;;;;;4923713;29;20624;-79
2022/10/08 00:55:29;;;;;;;15.30;11.77;;;13.40;99.90;;;;;;4910310;29;20233;-79
2022/10/08 00:58:01;;;;;;;15.23;11.30;;;13.40;99.90;;;;;;4925360;29;20206;-79
2022/10/08 01:00:31;;;;;;;14.07;12.77;;;13.40;99.90;;;;;;4897448;29;20201;-79
2022/10/08 01:02:59;;;;;;;16.47;14.97;;;13.40;99.90;;;;;;4914475;29;20252;-79
2022/10/08 01:05:38;;;;;;;16.23;14.53;;;13.40;99.90;;;;;;4921347;29;20226;-79
2022/10/08 01:08:15;;;;;;;16.03;14.50;;;13.40;99.90;;;;;;4905175;29;20204;-78
2022/10/08 01:10:53;;;;;;;14.83;13.60;;;13.40;99.90;;;;;;4918837;29;20208;-79
2022/10/08 01:13:31;;;;;;;16.50;15.27;;;13.30;99.90;;;;;;4915703;29;20196;-79
2022/10/08 01:16:02;;;;;;;17.90;16.47;;;13.30;99.90;;;;;;4920635;29;20220;-79
2022/10/08 01:18:41;;;;;;;17.93;16.30;;;13.30;99.90;;;;;;4917350;29;20223;-79
2022/10/08 01:21:12;;;;;;;16.90;15.60;;;13.30;99.90;;;;;;4918170;29;20203;-80
2022/10/08 01:23:58;;;;;;;18.63;17.13;;;13.30;99.90;;;;;;4916593;29;20235;-79
2022/10/08 01:26:51;;;;;;;19.20;17.73;;;13.30;99.90;;;;;;4899891;29;20215;-80
2022/10/08 01:29:23;;;;;;;16.83;15.43;;;13.30;99.90;;;;;;4901060;29;20275;-79
2022/10/08 01:31:54;;;;;;;18.70;17.03;;;13.30;99.90;;;;;;4909843;29;20272;-80
2022/10/08 01:34:27;;;;;;;17.93;16.43;;;13.30;99.90;;;;;;4925480;29;20205;-80
2022/10/08 01:36:56;;;;;;;18.03;16.63;;;13.30;99.90;;;;;;4920506;29;20338;-80
2022/10/08 01:39:27;;;;;;;17.07;15.70;;;13.30;99.90;;;;;;4922008;29;20207;-79
2022/10/08 01:41:56;;;;;;;15.80;14.47;;;13.30;99.90;;;;;;4929475;29;20212;-80
2022/10/08 01:44:31;;;;;;;16.90;15.60;;;13.30;99.90;;;;;;4922139;29;20212;-80
2022/10/08 01:47:03;;;;;;;17.67;16.17;;;13.30;99.90;;;;;;4928575;29;20236;-80
2022/10/08 01:49:37;;;;;;;17.33;16.00;;;13.30;99.90;;;;;;4904853;29;20199;-80
2022/10/08 01:52:07;;;;;;;16.83;15.43;;;13.20;99.90;;;;;;4921121;29;20203;-79
2022/10/08 01:54:36;;;;;;;16.07;14.67;;;13.30;99.90;;;;;;4926143;29;20204;-79
2022/10/08 01:57:08;;;;;;;16.53;15.13;;;13.30;99.90;;;;;;4924953;29;20595;-79
2022/10/08 01:59:44;;;;;;;17.37;15.70;;;13.30;99.90;;;;;;4907275;29;20224;-79
2022/10/08 02:02:17;;;;;;;18.37;16.97;;;13.30;99.90;;;;;;4926061;29;20207;-79
2022/10/08 02:04:45;;;;;;;17.70;16.37;;;13.30;99.90;;;;;;4923011;29;20215;-79
2022/10/08 02:07:16;;;;;;;16.73;15.50;;;13.30;99.90;;;;;;4922596;29;20802;-79
2022/10/08 02:09:45;;;;;;;16.73;15.43;;;13.30;99.90;;;;;;4905477;29;20215;-80
2022/10/08 02:12:13;;;;;;;17.50;16.10;;;13.30;99.90;;;;;;4919843;29;20210;-79
2022/10/08 02:14:44;;;;;;;17.10;15.80;;;13.30;99.90;;;;;;4919918;29;20693;-79
2022/10/08 02:17:23;;;;;;;17.17;15.87;;;13.30;99.90;;;;;;4901415;29;20237;-79
2022/10/08 02:19:55;;;;;;;17.50;15.90;;;13.30;99.90;;;;;;4904417;29;20200;-79
2022/10/08 02:22:29;;;;;;;18.97;17.37;;;13.30;99.90;;;;;;4923967;29;20204;-79
2022/10/08 02:25:00;;;;;;;17.70;16.20;;;13.30;99.90;;;;;;4918527;29;20226;-79
2022/10/08 02:27:35;;;;;;;17.87;16.27;;;13.30;99.90;;;;;;4920000;29;20207;-80
2022/10/08 02:30:09;;;;;;;17.10;15.80;;;13.30;99.90;;;;;;4923456;29;20665;-81
2022/10/08 02:32:44;;;;;;;18.00;16.50;;;13.30;99.90;;;;;;4902961;29;20218;-79
2022/10/08 02:35:16;;;;;;;16.67;15.27;;;13.30;99.90;;;;;;4918341;29;20227;-79
2022/10/08 02:37:47;;;;;;;16.20;14.97;;;13.30;99.90;;;;;;4928804;29;20203;-79
2022/10/08 02:40:17;;;;;;;16.37;15.07;;;13.30;99.90;;;;;;4912627;29;20210;-79
2022/10/08 02:42:49;;;;;;;15.87;14.47;;;13.30;99.90;;;;;;4929003;29;20920;-80
2022/10/08 02:45:22;;;;;;;17.20;15.90;;;13.30;99.90;;;;;;4904929;29;20224;-79
2022/10/08 02:47:54;;;;;;;17.20;15.80;;;13.40;99.90;;;;;;4922128;29;20196;-80
2022/10/08 02:50:25;;;;;;;18.10;16.60;;;13.40;99.90;;;;;;4921886;29;20193;-79
2022/10/08 02:52:52;;;;;;;16.30;15.10;;;13.30;99.90;;;;;;4922744;29;20212;-79
2022/10/08 02:55:29;;;;;;;17.17;15.63;;;13.40;99.90;;;;;;4926626;29;20227;-80
2022/10/08 02:58:01;;;;;;;16.20;15.00;;;13.40;99.90;;;;;;4917823;29;20209;-79
2022/10/08 03:00:36;;;;;;;17.70;16.40;;;13.40;99.90;;;;;;4918348;29;20263;-79
2022/10/08 03:03:13;;;;;;;16.93;15.63;;;13.40;99.90;;;;;;4926989;29;20250;-79
2022/10/08 03:05:42;;;;;;;19.17;17.73;;;13.40;99.90;;;;;;4920066;29;20219;-80
2022/10/08 03:08:13;;;;;;;16.43;15.23;;;13.40;99.90;;;;;;4899730;29;20235;-79
2022/10/08 03:10:43;;;;;;;17.73;16.23;;;13.40;99.90;;;;;;4921582;29;20222;-79
2022/10/08 03:13:12;;;;;;;19.63;18.03;;;13.40;99.90;;;;;;4916289;29;20677;-79
2022/10/08 03:15:41;;;;;;;16.33;14.70;;;13.50;99.90;;;;;;4905948;29;20227;-80
2022/10/08 03:18:11;;;;;;;18.07;16.57;;;13.40;99.90;;;;;;4907365;29;20217;-80
2022/10/08 03:20:41;;;;;;;18.50;17.03;;;13.40;99.90;;;;;;4917775;29;20205;-80
2022/10/08 03:23:08;;;;;;;18.93;17.43;;;13.40;99.90;;;;;;4917609;29;20278;-80
2022/10/08 03:25:35;;;;;;;18.20;16.77;;;13.40;99.90;;;;;;4913092;29;20231;-80
2022/10/08 03:28:02;;;;;;;16.00;14.83;;;13.40;99.90;;;;;;4913945;29;20651;-79
2022/10/08 03:30:29;;;;;;;16.87;15.57;;;13.40;99.90;;;;;;4935921;29;20203;-80
2022/10/08 03:32:57;;;;;;;17.13;15.83;;;13.30;99.90;;;;;;4939218;29;20209;-80
2022/10/08 03:35:24;;;;;;;19.10;17.47;;;13.30;99.90;;;;;;4920818;29;20220;-80
2022/10/08 03:37:52;;;;;;;17.67;16.17;;;13.30;99.90;;;;;;4932633;29;20934;-79
2022/10/08 03:40:19;;;;;;;17.70;16.20;;;13.30;99.90;;;;;;4916026;29;20195;-80
2022/10/08 03:42:46;;;;;;;17.83;16.43;;;13.40;99.90;;;;;;4920983;29;20225;-80
2022/10/08 03:45:13;;;;;;;17.83;16.33;;;13.30;99.90;;;;;;4937810;29;20241;-80
2022/10/08 03:47:40;;;;;;;17.50;16.23;;;13.30;99.90;;;;;;4920320;29;20199;-80
2022/10/08 03:50:09;;;;;;;15.77;14.47;;;13.30;99.90;;;;;;4933167;29;20191;-81
2022/10/08 03:52:36;;;;;;;16.17;14.97;;;13.30;99.90;;;;;;4919723;29;20211;-81
2022/10/08 03:55:03;;;;;;;17.83;16.43;;;13.30;99.90;;;;;;4911168;29;20273;-79
2022/10/08 03:57:30;;;;;;;16.07;14.77;;;13.30;99.90;;;;;;4932401;29;20670;-80
2022/10/08 03:59:57;;;;;;;16.43;15.23;;;13.30;99.90;;;;;;4938059;29;20207;-80
2022/10/08 04:02:24;;;;;;;19.97;18.47;;;13.30;99.90;;;;;;4912886;29;20203;-80
2022/10/08 04:04:51;;;;;;;19.53;18.03;;;13.30;99.90;;;;;;4901517;29;20224;-81
2022/10/08 04:07:19;;;;;;;18.63;17.03;;;13.30;99.90;;;;;;4901584;29;20217;-80
2022/10/08 04:09:46;;;;;;;20.03;18.57;;;13.30;99.90;;;;;;4899792;29;20211;-80
2022/10/08 04:12:13;;;;;;;17.03;15.80;;;13.30;99.90;;;;;;4905923;29;20206;-79
2022/10/08 04:14:40;;;;;;;20.23;18.63;;;13.30;99.90;;;;;;4920067;29;20580;-80
2022/10/08 04:17:07;;;;;;;19.77;18.37;;;13.30;99.90;;;;;;4936963;29;20272;-80
2022/10/08 04:19:34;;;;;;;20.83;19.03;;;13.30;99.90;;;;;;4921429;29;20230;-80
2022/10/08 04:22:01;;;;;;;21.27;19.57;;;13.30;99.90;;;;;;4929991;29;20207;-80
2022/10/08 04:24:29;;;;;;;19.43;17.83;;;13.30;99.90;;;;;;4911660;29;20234;-80
2022/10/08 04:26:56;;;;;;;13.67;11.37;;;13.30;99.90;;;;;;4901795;29;20235;-80
2022/10/08 04:29:23;;;;;;;11.80;10.60;;;13.30;99.90;;;;;;4918168;29;20207;-81
2022/10/08 04:31:50;;;;;;;14.13;11.27;;;13.30;99.90;;;;;;4910238;29;20204;-80
2022/10/08 04:34:17;;;;;;;13.93;11.53;;;13.30;99.90;;;;;;4911146;29;20211;-80
2022/10/08 04:36:44;;;;;;;13.00;10.93;;;13.30;99.90;;;;;;4909349;29;20299;-79
2022/10/08 04:39:11;;;;;;;12.43;11.17;;;13.30;99.90;;;;;;4924673;29;20212;-80
2022/10/08 04:41:39;;;;;;;12.13;10.00;;;13.30;99.90;;;;;;4926495;29;20211;-81
2022/10/08 04:44:06;;;;;;;12.03;10.73;;;13.20;99.90;;;;;;4909873;29;20204;-80
2022/10/08 04:46:33;;;;;;;11.70;10.50;;;13.20;99.90;;;;;;4925730;29;20220;-84
2022/10/08 04:49:00;;;;;;;10.97;9.87;;;13.20;99.90;;;;;;4924813;29;20607;-81
2022/10/08 04:51:27;;;;;;;9.70;8.80;;;13.10;99.90;;;;;;4922408;29;20227;-80
2022/10/08 04:53:55;;;;;;;10.60;9.60;;;13.20;99.90;;;;;;4930290;29;20586;-81
2022/10/08 04:56:24;;;;;;;10.97;9.93;;;13.20;99.90;;;;;;4911850;29;20700;-80
2022/10/08 04:58:53;;;;;;;14.57;13.17;;;13.10;99.90;;;;;;4929868;29;20196;-80
2022/10/08 05:01:21;;;;;;;18.63;17.03;;;13.10;99.90;;;;;;4929705;29;20208;-79
2022/10/08 05:03:50;;;;;;;16.07;14.77;;;13.10;99.90;;;;;;4921446;29;20580;-79
2022/10/08 05:06:20;;;;;;;19.10;17.60;;;13.00;99.90;;;;;;4900453;29;20243;-79
2022/10/08 05:08:48;;;;;;;15.53;14.23;;;13.00;99.90;;;;;;4899559;29;20210;-81
2022/10/08 05:11:16;;;;;;;20.83;19.23;;;12.90;99.90;;;;;;4913402;29;20207;-81
2022/10/08 05:13:43;;;;;;;23.17;21.23;;;12.90;99.90;;;;;;4918912;29;20478;-80
2022/10/08 05:16:13;;;;;;;20.97;19.27;;;12.80;99.90;;;;;;4916054;29;20218;-80
2022/10/08 05:18:41;;;;;;;19.20;17.60;;;12.80;99.90;;;;;;4914813;29;20579;-80
2022/10/08 05:21:10;;;;;;;20.90;19.30;;;12.70;99.90;;;;;;4921702;29;20201;-79
2022/10/08 05:23:38;;;;;;;21.20;19.30;;;12.70;99.90;;;;;;4915131;29;20274;-79
2022/10/08 05:26:12;;;;;;;21.73;19.97;;;12.60;99.90;;;;;;4913825;29;20681;-80
2022/10/08 05:28:39;;;;;;;22.10;20.30;;;12.60;99.90;;;;;;4898695;29;20207;-80
2022/10/08 05:31:06;;;;;;;22.67;20.80;;;12.60;99.90;;;;;;4905953;29;20292;-79
2022/10/08 05:33:34;;;;;;;22.00;20.20;;;12.50;99.90;;;;;;4921336;29;20271;-81
2022/10/08 05:36:03;;;;;;;23.10;21.20;;;12.50;99.90;;;;;;4899861;29;20224;-80
2022/10/08 05:38:30;;;;;;;23.47;21.77;;;12.40;99.90;;;;;;4919544;29;20595;-79
2022/10/08 05:41:08;;;;;;;22.50;20.67;;;12.40;99.90;;;;;;4918162;29;20260;-85
2022/10/08 05:43:35;;;;;;;22.00;20.30;;;12.40;99.90;;;;;;4902647;29;20216;-80
2022/10/08 05:46:02;;;;;;;22.30;20.70;;;12.40;99.90;;;;;;4898329;29;20246;-81
2022/10/08 05:48:29;;;;;;;24.17;22.17;;;12.50;99.90;;;;;;4895196;29;20267;-80
2022/10/08 05:50:57;;;;;;;22.67;20.77;;;12.50;99.90;;;;;;4919347;29;20203;-79
2022/10/08 05:53:24;;;;;;;23.83;21.67;;;12.50;99.90;;;;;;4913894;29;20204;-80
2022/10/08 05:55:59;;;;;;;21.10;19.30;;;12.50;99.90;;;;;;4920955;29;20220;-80
2022/10/08 05:58:26;;;;;;;21.93;20.10;;;12.50;99.90;;;;;;4915865;29;20688;-81
2022/10/08 06:00:57;;;;;;;22.53;20.57;;;12.60;99.90;;;;;;4902394;29;20234;-80
2022/10/08 06:03:24;;;;;;;27.30;25.20;;;12.60;99.90;;;;;;4911368;29;20197;-80
2022/10/08 06:05:51;;;;;;;26.93;24.90;;;12.60;99.90;;;;;;4913830;29;20226;-80
2022/10/08 06:08:19;;;;;;;28.30;25.73;;;12.70;99.90;;;;;;4909859;29;20314;-80
2022/10/08 06:10:50;;;;;;;29.00;26.80;;;12.70;99.90;;;;;;4912967;29;20204;-80
2022/10/08 06:13:18;;;;;;;21.83;19.87;;;12.70;99.90;;;;;;4893176;29;20223;-78
2022/10/08 06:15:54;;;;;;;25.47;23.23;;;12.70;99.90;;;;;;4893645;29;20633;-79
2022/10/08 06:18:20;;;;;;;24.97;22.97;;;12.80;99.90;;;;;;4912490;29;20204;-79
2022/10/08 06:20:47;;;;;;;23.93;21.80;;;12.80;99.90;;;;;;4893654;29;20218;-78
2022/10/08 06:23:14;;;;;;;24.03;22.07;;;12.90;99.90;;;;;;4895396;29;20199;-80
2022/10/08 06:25:42;;;;;;;24.47;22.60;;;13.00;99.90;;;;;;4893225;29;20226;-81
2022/10/08 06:28:09;;;;;;;20.17;18.47;;;13.00;99.90;;;;;;4897348;29;20711;-78
2022/10/08 06:30:36;;;;;;;21.13;19.33;;;13.00;99.90;;;;;;4898171;29;20206;-79
2022/10/08 06:33:03;;;;;;;14.17;12.87;;;13.10;99.90;;;;;;4899203;29;20235;-79
2022/10/08 06:35:30;;;;;;;17.00;15.27;;;13.20;99.90;;;;;;4908816;29;20216;-79
2022/10/08 06:37:57;;;;;;;13.70;11.07;;;13.30;99.90;;;;;;4894578;29;20208;-80
2022/10/08 06:40:23;;;;;;;20.70;19.20;;;13.40;99.90;;;;;;4891392;29;20219;-80
2022/10/08 06:42:52;;;;;;;18.63;17.10;;;13.60;99.90;;;;;;4911989;29;20452;-79
2022/10/08 06:45:18;;;;;;;17.90;16.50;;;13.60;99.90;;;;;;4891057;29;20220;-79
2022/10/08 06:47:45;;;;;;;18.53;17.03;;;13.70;99.90;;;;;;4909393;29;20604;-81
2022/10/08 06:50:12;;;;;;;18.80;17.30;;;13.80;99.90;;;;;;4903609;29;20207;-81
2022/10/08 06:52:39;;;;;;;16.03;14.63;;;13.80;99.90;;;;;;4915335;29;20200;-80
2022/10/08 06:55:07;;;;;;;17.00;15.70;;;13.90;99.90;;;;;;4894524;29;20649;-81
2022/10/08 06:57:33;;;;;;;18.50;16.90;;;13.90;99.90;;;;;;4898399;29;20197;-81
2022/10/08 07:00:02;;;;;;;20.40;18.80;;;13.90;99.90;;;;;;4908045;29;20205;-82
2022/10/08 07:02:30;;;;;;;19.70;18.10;;;13.90;99.90;;;;;;4899459;29;20208;-80
2022/10/08 07:04:57;;;;;;;20.67;18.90;;;13.90;99.90;;;;;;4928635;29;20704;-81
2022/10/08 07:07:24;;;;;;;18.80;17.00;;;14.10;99.90;;;;;;4903686;29;20220;-87
2022/10/08 07:09:51;;;;;;;19.47;18.03;;;14.10;99.90;;;;;;4890759;29;20666;-80
2022/10/08 07:12:20;;;;;;;19.73;17.93;;;14.20;99.90;;;;;;4894099;29;20209;-80
2022/10/08 07:14:47;;;;;;;21.10;19.23;;;14.30;99.90;;;;;;4910904;29;20656;-80
2022/10/08 07:17:15;;;;;;;13.90;12.40;;;14.30;99.90;;;;;;4917927;29;20205;-80
2022/10/08 07:19:42;;;;;;;18.80;17.30;;;14.40;99.90;;;;;;4898971;29;20215;-80
2022/10/08 07:22:09;;;;;;;16.60;15.27;;;14.50;99.90;;;;;;4890633;29;20577;-80
2022/10/08 07:24:36;;;;;;;17.83;16.43;;;14.60;99.90;;;;;;4910401;29;20457;-80
2022/10/08 07:27:32;;;;;;;19.23;17.53;;;14.60;99.90;;;;;;4914724;29;20246;-81
2022/10/08 07:29:59;;;;;;;14.07;12.60;;;14.70;99.90;;;;;;4881672;29;20210;-81
2022/10/08 07:32:27;;;;;;;12.83;11.37;;;14.70;99.90;;;;;;4911154;29;20211;-81
2022/10/08 07:34:54;;;;;;;12.17;10.60;;;14.90;99.90;;;;;;4926028;29;20225;-80
2022/10/08 07:37:21;;;;;;;14.93;11.00;;;14.90;99.90;;;;;;4925097;29;20671;-81
2022/10/08 07:39:48;;;;;;;14.27;10.80;;;15.00;99.90;;;;;;4924646;29;20205;-80
2022/10/08 07:42:15;;;;;;;15.80;13.03;;;15.30;99.90;;;;;;4929986;29;20205;-80
2022/10/08 07:44:41;;;;;;;16.77;15.27;;;15.50;99.90;;;;;;4910331;29;20221;-80
2022/10/08 07:47:08;;;;;;;16.53;15.13;;;15.70;99.90;;;;;;4909785;29;20221;-80
2022/10/08 07:49:37;;;;;;;16.97;15.47;;;15.90;99.90;;;;;;4906005;29;20227;-82
2022/10/08 07:52:04;;;;;;;16.03;14.63;;;16.00;99.90;;;;;;4924706;29;20207;-83
2022/10/08 07:54:31;;;;;;;16.63;15.23;;;16.10;99.90;;;;;;4920393;29;20196;-81
2022/10/08 07:57:00;;;;;;;18.23;16.50;;;16.20;99.90;;;;;;4918765;29;20204;-79
2022/10/08 07:59:27;;;;;;;16.50;14.90;;;16.20;99.90;;;;;;4913682;29;20244;-78
2022/10/08 08:01:54;;;;;;;17.27;15.87;;;16.20;99.90;;;;;;4929536;29;20761;-80
2022/10/08 08:04:24;;;;;;;12.03;9.77;;;16.40;99.90;;;;;;4925101;29;20251;-81
2022/10/08 08:06:52;;;;;;;14.77;13.37;;;16.40;99.90;;;;;;4909609;29;20211;-80
2022/10/08 08:09:19;;;;;;;11.40;10.27;;;16.50;99.90;;;;;;4907014;29;20208;-81
2022/10/08 08:11:48;;;;;;;14.93;13.70;;;16.40;99.90;;;;;;4923956;29;20219;-81
2022/10/08 08:14:15;;;;;;;14.70;13.47;;;16.40;99.90;;;;;;4918704;29;20200;-80
2022/10/08 08:16:42;;;;;;;13.67;12.37;;;16.40;99.90;;;;;;4921576;29;20220;-80
2022/10/08 08:19:09;;;;;;;15.67;14.23;;;16.30;99.90;;;;;;4918272;29;20228;-80
2022/10/08 08:21:38;;;;;;;18.20;16.70;;;16.20;99.90;;;;;;4919166;29;20205;-80
2022/10/08 08:24:09;;;;;;;16.93;15.53;;;16.20;99.90;;;;;;4921761;29;20205;-80
2022/10/08 08:26:38;;;;;;;14.63;13.33;;;16.10;99.90;;;;;;4917651;29;20302;-80
2022/10/08 08:29:07;;;;;;;15.47;14.03;;;16.00;99.90;;;;;;4903795;29;20238;-80
2022/10/08 08:31:36;;;;;;;15.77;14.47;;;16.00;99.90;;;;;;4900571;29;20207;-80
2022/10/08 08:34:05;;;;;;;9.80;8.70;;;16.10;99.90;;;;;;4917669;29;20203;-81
2022/10/08 08:36:34;;;;;;;9.27;7.60;;;16.10;99.90;;;;;;4904102;29;20255;-81
2022/10/08 08:39:02;;;;;;;10.53;8.70;;;16.10;99.90;;;;;;4916125;29;20203;-81
2022/10/08 08:41:42;;;;;;;15.63;14.40;;;16.20;99.90;;;;;;4918006;29;20197;-80
2022/10/08 08:44:13;;;;;;;11.90;10.70;;;16.20;99.90;;;;;;4902451;29;20217;-81
2022/10/08 08:46:45;;;;;;;12.63;11.57;;;16.20;99.90;;;;;;4913979;29;20697;-80
2022/10/08 08:49:19;;;;;;;12.60;11.50;;;16.40;99.90;;;;;;4900892;29;20228;-80
2022/10/08 08:51:46;;;;;;;14.20;12.97;;;16.60;99.90;;;;;;4898921;29;20724;-80
2022/10/08 08:54:13;;;;;;;13.63;12.27;;;16.90;99.90;;;;;;4896238;29;20203;-80
2022/10/08 08:56:43;;;;;;;7.87;6.93;;;17.00;99.90;;;;;;4913847;29;20593;-80
2022/10/08 08:59:27;;;;;;;14.37;13.03;;;17.10;99.90;;;;;;4895209;29;20658;-80
2022/10/08 09:01:58;;;;;;;17.47;14.60;;;17.10;99.90;;;;;;4918392;29;20227;-80
2022/10/08 09:04:31;;;;;;;15.17;13.77;;;17.10;99.90;;;;;;4895901;29;20206;-81
2022/10/08 09:07:01;;;;;;;11.53;8.10;;;17.30;99.90;;;;;;4913355;29;20208;-80
2022/10/08 09:09:35;;;;;;;8.07;6.10;;;17.50;99.90;;;;;;4895340;29;20208;-81
2022/10/08 09:12:14;;;;;;;7.53;6.07;;;17.70;99.90;;;;;;4915691;29;20208;-80
2022/10/08 09:14:45;;;;;;;12.00;11.10;;;17.70;99.90;;;;;;4911298;29;20219;-80
2022/10/08 09:17:15;;;;;;;14.23;11.47;;;17.70;99.90;;;;;;4894373;29;20261;-81
2022/10/08 09:19:42;;;;;;;12.70;11.40;;;17.70;99.90;;;;;;4912427;29;20203;-80
2022/10/08 09:22:20;;;;;;;6.57;5.87;;;17.70;99.90;;;;;;4893124;29;20209;-81
2022/10/08 09:24:49;;;;;;;6.53;4.73;;;17.90;99.90;;;;;;4906304;29;20236;-81
2022/10/08 09:27:18;;;;;;;10.07;9.07;;;17.90;99.90;;;;;;4909220;29;20224;-80
2022/10/08 09:29:45;;;;;;;11.57;10.57;;;17.90;99.90;;;;;;4899076;29;20197;-81
2022/10/08 09:32:17;;;;;;;12.33;11.43;;;17.80;99.90;;;;;;4892511;29;20702;-81
2022/10/08 09:34:47;;;;;;;10.53;9.73;;;17.90;99.90;;;;;;4883000;29;20320;-80
2022/10/08 09:37:21;;;;;;;11.17;10.27;;;17.90;99.90;;;;;;4892085;29;20300;-81
2022/10/08 09:40:17;;;;;;;9.40;8.57;;;17.90;99.90;;;;;;4909287;29;20202;-80
2022/10/08 09:43:10;;;;;;;9.37;5.13;;;18.00;99.90;;;;;;4914052;29;20675;-80
2022/10/08 09:45:41;;;;;;;10.33;9.33;;;18.00;99.90;;;;;;4908054;29;20301;-81
2022/10/08 09:48:26;;;;;;;10.60;9.70;;;18.00;99.90;;;;;;4898391;29;20253;-81
2022/10/08 09:50:59;;;;;;;11.33;10.23;;;18.00;99.90;;;;;;4907248;29;20202;-81
2022/10/08 09:53:29;;;;;;;11.70;10.60;;;17.90;99.90;;;;;;4897630;29;20580;-81
2022/10/08 09:55:59;;;;;;;11.70;10.70;;;17.90;99.90;;;;;;4912595;29;20217;-81
2022/10/08 09:58:33;;;;;;;11.60;10.70;;;18.00;99.90;;;;;;4905512;29;20200;-83
2022/10/08 10:01:06;;;;;;;9.90;9.00;;;18.20;99.90;;;;;;4895768;29;20210;-80
2022/10/08 10:03:35;;;;;;;9.97;8.13;;;18.70;99.90;;;;;;4900024;29;20683;-81
2022/10/08 10:06:02;;;;;;;9.00;8.30;;;19.00;99.90;;;;;;4898115;29;20613;-81
2022/10/08 10:08:48;;;;;;;12.20;10.83;;;19.40;99.90;;;;;;4891753;29;20231;-81
2022/10/08 10:11:22;;;;;;;8.60;6.27;;;19.50;99.90;;;;;;4911285;29;20211;-81
2022/10/08 10:13:51;;;;;;;6.20;4.43;;;19.40;99.90;;;;;;4892144;29;20222;-81
2022/10/08 10:16:23;;;;;;;7.03;4.20;;;19.50;99.90;;;;;;4900710;29;20717;-81
2022/10/08 10:18:56;;;;;;;10.63;9.63;;;19.50;99.90;;;;;;4902111;29;20599;-81
2022/10/08 10:21:44;;;;;;;11.40;10.50;;;19.40;99.90;;;;;;4906073;29;20215;-81
2022/10/08 10:24:47;;;;;;;12.30;10.53;;;19.30;99.90;;;;;;4922894;29;20206;-85
2022/10/08 10:27:35;;;;;;;11.17;10.23;;;19.50;99.90;;;;;;4904738;29;20203;-84
2022/10/08 10:30:15;;;;;;;10.53;8.10;;;19.80;99.90;;;;;;4923743;29;20218;-81
2022/10/08 10:32:48;;;;;;;7.87;5.23;;;20.00;99.90;;;;;;4925801;29;20206;-81
2022/10/08 10:35:21;;;;;;;9.83;9.03;;;20.00;99.90;;;;;;4910523;29;20235;-81
2022/10/08 10:37:53;;;;;;;5.93;5.33;;;20.00;99.90;;;;;;4924683;29;20210;-82
2022/10/08 10:40:41;;;;;;;8.73;7.37;;;19.80;99.90;;;;;;4906492;29;20211;-81
2022/10/08 10:43:26;;;;;;;10.90;9.90;;;19.70;99.90;;;;;;4901458;29;20207;-82
2022/10/08 10:46:01;;;;;;;11.60;10.50;;;19.60;99.90;;;;;;4921463;29;20223;-83
2022/10/08 10:48:29;;;;;;;10.93;9.93;;;19.50;99.90;;;;;;4907040;29;20223;-81
2022/10/08 10:51:18;;;;;;;10.00;9.20;;;19.30;99.90;;;;;;4922461;29;20199;-83
2022/10/08 10:53:55;;;;;;;10.47;9.67;;;19.10;99.90;;;;;;4916398;29;20204;-81
2022/10/08 10:56:25;;;;;;;9.83;8.93;;;19.10;99.90;;;;;;4904446;29;20242;-82
2022/10/08 10:59:19;;;;;;;8.30;7.50;;;18.90;99.90;;;;;;4903209;29;20247;-82
2022/10/08 11:01:56;;;;;;;7.03;3.80;;;18.80;99.90;;;;;;4893456;29;20212;-82
2022/10/08 11:04:38;;;;;;;4.67;4.27;;;18.70;99.90;;;;;;4911842;29;20212;-82
2022/10/08 11:07:13;;;;;;;8.07;6.00;;;18.50;99.90;;;;;;4929443;29;20207;-82
2022/10/08 11:09:46;;;;;;;8.63;4.37;;;18.30;99.90;;;;;;4923054;29;20227;-82
2022/10/08 11:12:28;;;;;;;10.20;9.30;;;18.20;99.90;;;;;;4926314;29;20293;-82
2022/10/08 11:15:37;;;;;;;9.73;8.93;;;18.30;99.90;;;;;;4905327;29;20231;-82
2022/10/08 11:18:20;;;;;;;9.40;8.70;;;18.30;99.90;;;;;;4919807;29;20210;-82
2022/10/08 11:21:05;;;;;;;5.90;3.27;;;18.40;99.90;;;;;;4897792;29;20221;-83
2022/10/08 11:23:47;;;;;;;7.77;4.03;;;18.50;99.90;;;;;;4895628;29;20658;-83
2022/10/08 11:26:20;;;;;;;7.07;3.70;;;18.40;99.90;;;;;;4901362;29;20234;-83
2022/10/08 11:28:55;;;;;;;8.03;7.33;;;18.20;99.90;;;;;;4906939;29;20309;-82
2022/10/08 11:31:33;;;;;;;11.30;9.10;;;18.10;99.90;;;;;;4932323;29;20208;-83
2022/10/08 11:34:03;;;;;;;9.63;8.73;;;18.00;99.90;;;;;;4917828;29;20518;-82
2022/10/08 11:36:39;;;;;;;9.40;8.67;;;18.10;99.90;;;;;;4892601;29;20232;-81
2022/10/08 11:39:14;;;;;;;10.60;9.33;;;18.10;99.90;;;;;;4921673;29;20208;-81
2022/10/08 11:41:48;;;;;;;10.13;9.33;;;18.00;99.90;;;;;;4899848;29;20627;-81
2022/10/08 11:44:16;;;;;;;7.43;6.53;;;17.90;99.90;;;;;;4904143;29;20201;-81
2022/10/08 11:46:43;;;;;;;4.47;3.33;;;17.80;99.90;;;;;;4918052;29;20393;-79
2022/10/08 11:49:49;;;;;;;4.33;4.00;;;17.80;99.90;;;;;;4896031;29;20224;-82
2022/10/08 11:52:16;;;;;;;6.43;5.43;;;17.80;99.90;;;;;;4920308;29;20343;-81
2022/10/08 11:54:48;;;;;;;9.97;9.17;;;17.80;99.90;;;;;;4932522;29;20283;-81
2022/10/08 11:57:20;;;;;;;9.50;8.80;;;17.90;99.90;;;;;;4933119;29;20192;-80
2022/10/08 11:59:55;;;;;;;10.10;9.10;;;18.10;99.90;;;;;;4933318;29;20197;-80
2022/10/08 12:02:26;;;;;;;9.10;8.20;;;18.20;99.90;;;;;;4910362;29;20208;-79
2022/10/08 12:04:57;;;;;;;8.53;7.80;;;18.30;99.90;;;;;;4897051;29;20719;-80
2022/10/08 12:07:29;;;;;;;8.77;8.13;;;18.40;99.90;;;;;;4921411;29;20702;-79
2022/10/08 12:10:29;;;;;;;8.50;7.83;;;18.60;99.90;;;;;;4899979;29;20250;-79
2022/10/08 12:13:30;;;;;;;9.30;8.40;;;18.70;99.90;;;;;;4917410;29;20216;-79
2022/10/08 12:16:03;;;;;;;9.67;8.70;;;18.60;99.90;;;;;;4901822;29;20225;-79
2022/10/08 12:18:49;;;;;;;8.40;7.70;;;18.40;99.90;;;;;;4913168;29;20197;-79
2022/10/08 12:21:47;;;;;;;9.77;8.37;;;18.30;99.90;;;;;;4903621;29;20201;-81
2022/10/08 12:24:54;;;;;;;8.80;8.10;;;18.20;99.90;;;;;;4921492;29;20257;-79
2022/10/08 12:27:32;;;;;;;9.10;8.40;;;18.20;99.90;;;;;;4917685;29;20209;-80
2022/10/08 12:30:01;;;;;;;6.33;3.37;;;18.00;99.90;;;;;;4893232;29;20233;-83
2022/10/08 12:32:30;;;;;;;4.57;2.97;;;17.90;99.90;;;;;;4899887;29;20263;-78
2022/10/08 12:34:58;;;;;;;5.17;3.33;;;18.10;99.90;;;;;;4900832;29;20233;-78
2022/10/08 12:38:06;;;;;;;6.80;6.00;;;18.30;99.90;;;;;;4897503;29;20214;-79
2022/10/08 12:40:41;;;;;;;6.03;4.10;;;18.30;99.90;;;;;;4902653;29;20250;-78
2022/10/08 12:43:21;;;;;;;7.33;5.10;;;18.30;99.90;;;;;;4901079;29;20215;-79
2022/10/08 12:45:55;;;;;;;9.53;8.53;;;18.20;99.90;;;;;;4916882;29;20239;-79
2022/10/08 12:48:34;;;;;;;8.53;7.77;;;18.20;99.90;;;;;;4895928;29;20212;-78
2022/10/08 12:51:12;;;;;;;6.73;6.03;;;18.30;99.90;;;;;;4912743;29;20205;-79
2022/10/08 12:53:44;;;;;;;4.23;3.10;;;18.50;99.90;;;;;;4902021;29;20205;-78